sensor_id;sensor_type;location;lat;lon;timestamp;P1;durP1;ratioP1;P2;durP2;ratioP2
13114;SDS011;6623;52.120;8.660;2023-04-02T00:00:35;3.77;;;2.60;;
13114;SDS011;6623;52.120;8.660;2023-04-02T00:03:21;3.97;;;2.40;;
13114;SDS011;6623;52.120;8.660;2023-04-02T00:05:47;5.90;;;2.17;;
13114;SDS011;6623;52.120;8.660;2023-04-02T00:08:25;4.03;;;2.17;;
13114;SDS011;6623;52.120;8.660;2023-04-02T00:11:03;2.80;;;2.50;;
13114;SDS011;6623;52.120;8.660;2023-04-02T00:13:33;2.10;;;1.90;;
13114;SDS011;6623;52.120;8.660;2023-04-02T00:16:04;2.27;;;1.90;;
13114;SDS011;6623;52.120;8.660;2023-04-02T00:18:32;2.63;;;2.00;;
13114;SDS011;6623;52.120;8.660;2023-04-02T00:21:04;1.80;;;1.70;;
13114;SDS011;6623;52.120;8.660;2023-04-02T00:23:36;3.10;;;2.00;;
13114;SDS011;6623;52.120;8.660;2023-04-02T00:28:54;2.60;;;2.40;;
13114;SDS011;6623;52.120;8.660;2023-04-02T00:31:20;3.13;;;2.43;;
13114;SDS011;6623;52.120;8.660;2023-04-02T00:33:47;3.90;;;2.90;;
13114;SDS011;6623;52.120;8.660;2023-04-02T00:36:13;4.67;;;3.30;;
13114;SDS011;6623;52.120;8.660;2023-04-02T00:38:39;4.77;;;2.93;;
13114;SDS011;6623;52.120;8.660;2023-04-02T00:41:09;4.20;;;3.37;;
13114;SDS011;6623;52.120;8.660;2023-04-02T00:43:42;6.47;;;3.30;;
13114;SDS011;6623;52.120;8.660;2023-04-02T00:46:11;5.03;;;3.53;;
13114;SDS011;6623;52.120;8.660;2023-04-02T00:48:42;4.83;;;3.77;;
13114;SDS011;6623;52.120;8.660;2023-04-02T00:51:18;4.10;;;3.10;;
13114;SDS011;6623;52.120;8.660;2023-04-02T00:54:08;4.77;;;3.70;;
13114;SDS011;6623;52.120;8.660;2023-04-02T00:56:40;5.60;;;3.77;;
13114;SDS011;6623;52.120;8.660;2023-04-02T00:59:16;5.83;;;4.10;;
13114;SDS011;6623;52.120;8.660;2023-04-02T01:01:42;4.43;;;2.77;;
13114;SDS011;6623;52.120;8.660;2023-04-02T01:04:25;7.60;;;4.20;;
13114;SDS011;6623;52.120;8.660;2023-04-02T01:06:53;7.63;;;3.40;;
13114;SDS011;6623;52.120;8.660;2023-04-02T01:09:25;4.97;;;3.40;;
13114;SDS011;6623;52.120;8.660;2023-04-02T01:12:28;6.20;;;4.07;;
13114;SDS011;6623;52.120;8.660;2023-04-02T01:15:15;4.33;;;3.40;;
13114;SDS011;6623;52.120;8.660;2023-04-02T01:20:47;7.00;;;4.10;;
13114;SDS011;6623;52.120;8.660;2023-04-02T01:26:18;5.10;;;3.73;;
13114;SDS011;6623;52.120;8.660;2023-04-02T01:29:00;7.67;;;3.97;;
13114;SDS011;6623;52.120;8.660;2023-04-02T01:31:35;7.47;;;3.90;;
13114;SDS011;6623;52.120;8.660;2023-04-02T01:34:02;8.90;;;3.83;;
13114;SDS011;6623;52.120;8.660;2023-04-02T01:39:07;6.30;;;3.67;;
13114;SDS011;6623;52.120;8.660;2023-04-02T01:44:26;9.27;;;4.73;;
13114;SDS011;6623;52.120;8.660;2023-04-02T01:46:56;6.60;;;3.83;;
13114;SDS011;6623;52.120;8.660;2023-04-02T01:49:24;6.10;;;3.40;;
13114;SDS011;6623;52.120;8.660;2023-04-02T01:51:52;6.23;;;3.80;;
13114;SDS011;6623;52.120;8.660;2023-04-02T01:54:20;7.37;;;3.90;;
13114;SDS011;6623;52.120;8.660;2023-04-02T01:56:47;4.90;;;3.13;;
13114;SDS011;6623;52.120;8.660;2023-04-02T01:59:15;10.13;;;4.20;;
13114;SDS011;6623;52.120;8.660;2023-04-02T02:02:05;5.90;;;3.57;;
13114;SDS011;6623;52.120;8.660;2023-04-02T02:04:31;6.30;;;3.57;;
13114;SDS011;6623;52.120;8.660;2023-04-02T02:06:58;5.60;;;3.63;;
13114;SDS011;6623;52.120;8.660;2023-04-02T02:09:29;5.20;;;3.33;;
13114;SDS011;6623;52.120;8.660;2023-04-02T02:11:58;6.60;;;3.80;;
13114;SDS011;6623;52.120;8.660;2023-04-02T02:14:26;6.50;;;3.40;;
13114;SDS011;6623;52.120;8.660;2023-04-02T02:16:53;7.50;;;3.83;;
13114;SDS011;6623;52.120;8.660;2023-04-02T02:24:57;8.03;;;3.37;;
13114;SDS011;6623;52.120;8.660;2023-04-02T02:29:52;6.90;;;3.37;;
13114;SDS011;6623;52.120;8.660;2023-04-02T02:32:26;7.03;;;3.07;;
13114;SDS011;6623;52.120;8.660;2023-04-02T02:34:55;7.13;;;2.90;;
13114;SDS011;6623;52.120;8.660;2023-04-02T02:37:28;7.30;;;3.23;;
13114;SDS011;6623;52.120;8.660;2023-04-02T02:39:58;4.90;;;3.07;;
13114;SDS011;6623;52.120;8.660;2023-04-02T02:42:32;5.00;;;2.77;;
13114;SDS011;6623;52.120;8.660;2023-04-02T02:45:04;4.63;;;2.77;;
13114;SDS011;6623;52.120;8.660;2023-04-02T02:47:36;4.83;;;2.30;;
13114;SDS011;6623;52.120;8.660;2023-04-02T02:50:06;4.20;;;2.60;;
13114;SDS011;6623;52.120;8.660;2023-04-02T02:52:37;6.20;;;2.50;;
13114;SDS011;6623;52.120;8.660;2023-04-02T02:55:18;4.87;;;2.40;;
13114;SDS011;6623;52.120;8.660;2023-04-02T02:57:51;3.97;;;2.57;;
13114;SDS011;6623;52.120;8.660;2023-04-02T03:00:20;4.60;;;2.50;;
13114;SDS011;6623;52.120;8.660;2023-04-02T03:02:48;6.67;;;2.60;;
13114;SDS011;6623;52.120;8.660;2023-04-02T03:05:17;5.53;;;2.53;;
13114;SDS011;6623;52.120;8.660;2023-04-02T03:07:49;4.77;;;2.33;;
13114;SDS011;6623;52.120;8.660;2023-04-02T03:15:52;3.97;;;2.40;;
13114;SDS011;6623;52.120;8.660;2023-04-02T03:18:42;6.80;;;2.40;;
13114;SDS011;6623;52.120;8.660;2023-04-02T03:21:18;7.67;;;2.57;;
13114;SDS011;6623;52.120;8.660;2023-04-02T03:23:47;5.13;;;2.40;;
13114;SDS011;6623;52.120;8.660;2023-04-02T03:26:22;4.23;;;2.40;;
13114;SDS011;6623;52.120;8.660;2023-04-02T03:29:00;5.23;;;2.60;;
13114;SDS011;6623;52.120;8.660;2023-04-02T03:31:40;2.40;;;1.90;;
13114;SDS011;6623;52.120;8.660;2023-04-02T03:34:12;3.60;;;2.23;;
13114;SDS011;6623;52.120;8.660;2023-04-02T03:37:01;4.73;;;2.50;;
13114;SDS011;6623;52.120;8.660;2023-04-02T03:39:36;4.93;;;2.50;;
13114;SDS011;6623;52.120;8.660;2023-04-02T03:42:22;5.33;;;2.30;;
13114;SDS011;6623;52.120;8.660;2023-04-02T03:44:57;4.47;;;1.93;;
13114;SDS011;6623;52.120;8.660;2023-04-02T03:47:41;6.40;;;2.10;;
13114;SDS011;6623;52.120;8.660;2023-04-02T03:50:35;8.93;;;2.27;;
13114;SDS011;6623;52.120;8.660;2023-04-02T03:53:11;6.30;;;2.27;;
13114;SDS011;6623;52.120;8.660;2023-04-02T03:55:37;3.77;;;2.10;;
13114;SDS011;6623;52.120;8.660;2023-04-02T03:58:07;2.83;;;1.90;;
13114;SDS011;6623;52.120;8.660;2023-04-02T04:03:51;2.83;;;1.70;;
13114;SDS011;6623;52.120;8.660;2023-04-02T04:06:24;5.70;;;2.30;;
13114;SDS011;6623;52.120;8.660;2023-04-02T04:11:47;5.33;;;2.17;;
13114;SDS011;6623;52.120;8.660;2023-04-02T04:14:17;3.63;;;1.50;;
13114;SDS011;6623;52.120;8.660;2023-04-02T04:16:58;7.03;;;2.20;;
13114;SDS011;6623;52.120;8.660;2023-04-02T04:19:40;5.00;;;1.67;;
13114;SDS011;6623;52.120;8.660;2023-04-02T04:22:10;3.93;;;1.80;;
13114;SDS011;6623;52.120;8.660;2023-04-02T04:24:39;2.80;;;1.83;;
13114;SDS011;6623;52.120;8.660;2023-04-02T04:32:49;4.80;;;1.73;;
13114;SDS011;6623;52.120;8.660;2023-04-02T04:35:29;4.53;;;1.73;;
13114;SDS011;6623;52.120;8.660;2023-04-02T04:40:33;3.33;;;1.47;;
13114;SDS011;6623;52.120;8.660;2023-04-02T04:43:08;1.87;;;1.57;;
13114;SDS011;6623;52.120;8.660;2023-04-02T04:45:41;3.10;;;1.30;;
13114;SDS011;6623;52.120;8.660;2023-04-02T04:48:18;4.17;;;1.80;;
13114;SDS011;6623;52.120;8.660;2023-04-02T04:50:52;4.27;;;1.57;;
13114;SDS011;6623;52.120;8.660;2023-04-02T04:53:28;2.30;;;1.70;;
13114;SDS011;6623;52.120;8.660;2023-04-02T04:55:55;5.37;;;1.70;;
13114;SDS011;6623;52.120;8.660;2023-04-02T04:58:41;4.47;;;1.63;;
13114;SDS011;6623;52.120;8.660;2023-04-02T05:01:20;4.50;;;2.00;;
13114;SDS011;6623;52.120;8.660;2023-04-02T05:04:03;3.43;;;1.77;;
13114;SDS011;6623;52.120;8.660;2023-04-02T05:06:52;2.73;;;1.77;;
13114;SDS011;6623;52.120;8.660;2023-04-02T05:09:35;3.57;;;1.77;;
13114;SDS011;6623;52.120;8.660;2023-04-02T05:15:16;5.83;;;1.63;;
13114;SDS011;6623;52.120;8.660;2023-04-02T05:18:10;2.90;;;1.50;;
13114;SDS011;6623;52.120;8.660;2023-04-02T05:20:48;3.13;;;1.63;;
13114;SDS011;6623;52.120;8.660;2023-04-02T05:23:38;2.70;;;1.53;;
13114;SDS011;6623;52.120;8.660;2023-04-02T05:28:43;3.33;;;1.87;;
13114;SDS011;6623;52.120;8.660;2023-04-02T05:34:06;4.43;;;1.73;;
13114;SDS011;6623;52.120;8.660;2023-04-02T05:36:34;3.63;;;1.73;;
13114;SDS011;6623;52.120;8.660;2023-04-02T05:39:00;3.07;;;1.63;;
13114;SDS011;6623;52.120;8.660;2023-04-02T05:41:30;4.70;;;1.90;;
13114;SDS011;6623;52.120;8.660;2023-04-02T05:44:20;5.53;;;1.50;;
13114;SDS011;6623;52.120;8.660;2023-04-02T05:46:58;4.73;;;1.43;;
13114;SDS011;6623;52.120;8.660;2023-04-02T05:49:35;2.63;;;1.80;;
13114;SDS011;6623;52.120;8.660;2023-04-02T05:52:10;6.43;;;1.80;;
13114;SDS011;6623;52.120;8.660;2023-04-02T05:55:01;3.77;;;1.50;;
13114;SDS011;6623;52.120;8.660;2023-04-02T05:57:31;3.87;;;1.57;;
13114;SDS011;6623;52.120;8.660;2023-04-02T06:00:03;2.50;;;1.50;;
13114;SDS011;6623;52.120;8.660;2023-04-02T06:02:34;3.87;;;1.60;;
13114;SDS011;6623;52.120;8.660;2023-04-02T06:05:06;3.10;;;1.60;;
13114;SDS011;6623;52.120;8.660;2023-04-02T06:10:11;3.43;;;1.57;;
13114;SDS011;6623;52.120;8.660;2023-04-02T06:12:45;2.97;;;1.60;;
13114;SDS011;6623;52.120;8.660;2023-04-02T06:15:27;3.97;;;1.57;;
13114;SDS011;6623;52.120;8.660;2023-04-02T06:20:41;2.60;;;1.40;;
13114;SDS011;6623;52.120;8.660;2023-04-02T06:23:09;3.67;;;1.57;;
13114;SDS011;6623;52.120;8.660;2023-04-02T06:25:43;3.97;;;1.40;;
13114;SDS011;6623;52.120;8.660;2023-04-02T06:28:18;4.77;;;1.73;;
13114;SDS011;6623;52.120;8.660;2023-04-02T06:31:08;3.83;;;1.30;;
13114;SDS011;6623;52.120;8.660;2023-04-02T06:33:38;1.37;;;1.20;;
13114;SDS011;6623;52.120;8.660;2023-04-02T06:36:04;4.13;;;1.80;;
13114;SDS011;6623;52.120;8.660;2023-04-02T06:38:31;5.03;;;1.73;;
13114;SDS011;6623;52.120;8.660;2023-04-02T06:41:00;5.97;;;1.67;;
13114;SDS011;6623;52.120;8.660;2023-04-02T06:43:33;4.13;;;1.70;;
13114;SDS011;6623;52.120;8.660;2023-04-02T06:46:06;2.83;;;1.30;;
13114;SDS011;6623;52.120;8.660;2023-04-02T06:48:37;3.07;;;1.60;;
13114;SDS011;6623;52.120;8.660;2023-04-02T06:51:06;4.07;;;1.50;;
13114;SDS011;6623;52.120;8.660;2023-04-02T06:53:36;4.83;;;1.50;;
13114;SDS011;6623;52.120;8.660;2023-04-02T06:56:09;5.07;;;1.60;;
13114;SDS011;6623;52.120;8.660;2023-04-02T06:58:57;2.17;;;1.40;;
13114;SDS011;6623;52.120;8.660;2023-04-02T07:01:24;1.73;;;1.20;;
13114;SDS011;6623;52.120;8.660;2023-04-02T07:03:53;3.03;;;1.70;;
13114;SDS011;6623;52.120;8.660;2023-04-02T07:06:19;3.53;;;1.40;;
13114;SDS011;6623;52.120;8.660;2023-04-02T07:08:46;4.87;;;1.60;;
13114;SDS011;6623;52.120;8.660;2023-04-02T07:11:13;2.47;;;1.50;;
13114;SDS011;6623;52.120;8.660;2023-04-02T07:13:40;2.20;;;1.10;;
13114;SDS011;6623;52.120;8.660;2023-04-02T07:16:13;2.47;;;1.57;;
13114;SDS011;6623;52.120;8.660;2023-04-02T07:18:40;2.93;;;1.60;;
13114;SDS011;6623;52.120;8.660;2023-04-02T07:21:05;3.23;;;1.50;;
13114;SDS011;6623;52.120;8.660;2023-04-02T07:23:34;3.20;;;1.60;;
13114;SDS011;6623;52.120;8.660;2023-04-02T07:26:03;3.27;;;1.40;;
13114;SDS011;6623;52.120;8.660;2023-04-02T07:28:29;3.83;;;1.50;;
13114;SDS011;6623;52.120;8.660;2023-04-02T07:30:55;3.27;;;1.50;;
13114;SDS011;6623;52.120;8.660;2023-04-02T07:33:22;2.27;;;1.43;;
13114;SDS011;6623;52.120;8.660;2023-04-02T07:35:50;4.07;;;1.57;;
13114;SDS011;6623;52.120;8.660;2023-04-02T07:38:16;2.90;;;1.30;;
13114;SDS011;6623;52.120;8.660;2023-04-02T07:40:42;3.07;;;1.40;;
13114;SDS011;6623;52.120;8.660;2023-04-02T07:43:08;4.03;;;1.30;;
13114;SDS011;6623;52.120;8.660;2023-04-02T07:45:34;3.50;;;1.60;;
13114;SDS011;6623;52.120;8.660;2023-04-02T07:48:04;2.00;;;1.23;;
13114;SDS011;6623;52.120;8.660;2023-04-02T07:50:30;2.30;;;1.20;;
13114;SDS011;6623;52.120;8.660;2023-04-02T07:52:56;2.60;;;1.30;;
13114;SDS011;6623;52.120;8.660;2023-04-02T07:55:22;4.70;;;1.53;;
13114;SDS011;6623;52.120;8.660;2023-04-02T07:57:51;2.13;;;1.30;;
13114;SDS011;6623;52.120;8.660;2023-04-02T08:00:18;2.60;;;1.30;;
13114;SDS011;6623;52.120;8.660;2023-04-02T08:02:45;1.87;;;0.97;;
13114;SDS011;6623;52.120;8.660;2023-04-02T08:05:11;2.50;;;1.10;;
13114;SDS011;6623;52.120;8.660;2023-04-02T08:07:37;2.07;;;1.10;;
13114;SDS011;6623;52.120;8.660;2023-04-02T08:10:07;1.50;;;1.00;;
13114;SDS011;6623;52.120;8.660;2023-04-02T08:12:34;1.67;;;0.90;;
13114;SDS011;6623;52.120;8.660;2023-04-02T08:15:03;1.60;;;1.37;;
13114;SDS011;6623;52.120;8.660;2023-04-02T08:17:31;1.87;;;1.23;;
13114;SDS011;6623;52.120;8.660;2023-04-02T08:19:57;1.37;;;1.00;;
13114;SDS011;6623;52.120;8.660;2023-04-02T08:22:29;2.50;;;1.30;;
13114;SDS011;6623;52.120;8.660;2023-04-02T08:24:55;2.57;;;1.30;;
13114;SDS011;6623;52.120;8.660;2023-04-02T08:27:21;2.40;;;0.90;;
13114;SDS011;6623;52.120;8.660;2023-04-02T08:29:48;2.77;;;1.00;;
13114;SDS011;6623;52.120;8.660;2023-04-02T08:32:14;1.30;;;0.93;;
13114;SDS011;6623;52.120;8.660;2023-04-02T08:34:41;2.13;;;1.10;;
13114;SDS011;6623;52.120;8.660;2023-04-02T08:37:08;3.13;;;1.20;;
13114;SDS011;6623;52.120;8.660;2023-04-02T08:39:37;1.73;;;0.97;;
13114;SDS011;6623;52.120;8.660;2023-04-02T08:42:13;2.30;;;0.97;;
13114;SDS011;6623;52.120;8.660;2023-04-02T08:47:38;2.00;;;1.00;;
13114;SDS011;6623;52.120;8.660;2023-04-02T08:50:11;2.80;;;1.10;;
13114;SDS011;6623;52.120;8.660;2023-04-02T08:52:42;3.17;;;1.20;;
13114;SDS011;6623;52.120;8.660;2023-04-02T08:55:25;3.83;;;1.43;;
13114;SDS011;6623;52.120;8.660;2023-04-02T08:58:09;2.30;;;1.20;;
13114;SDS011;6623;52.120;8.660;2023-04-02T09:00:45;1.83;;;1.10;;
13114;SDS011;6623;52.120;8.660;2023-04-02T09:03:16;3.17;;;1.20;;
13114;SDS011;6623;52.120;8.660;2023-04-02T09:05:45;2.97;;;1.30;;
13114;SDS011;6623;52.120;8.660;2023-04-02T09:08:20;1.70;;;1.10;;
13114;SDS011;6623;52.120;8.660;2023-04-02T09:11:08;2.43;;;1.20;;
13114;SDS011;6623;52.120;8.660;2023-04-02T09:13:43;3.97;;;1.10;;
13114;SDS011;6623;52.120;8.660;2023-04-02T09:16:20;3.87;;;1.67;;
13114;SDS011;6623;52.120;8.660;2023-04-02T09:19:09;1.60;;;1.10;;
13114;SDS011;6623;52.120;8.660;2023-04-02T09:21:44;2.33;;;1.33;;
13114;SDS011;6623;52.120;8.660;2023-04-02T09:24:18;2.20;;;1.20;;
13114;SDS011;6623;52.120;8.660;2023-04-02T09:26:44;2.23;;;1.30;;
13114;SDS011;6623;52.120;8.660;2023-04-02T09:31:37;2.20;;;1.30;;
13114;SDS011;6623;52.120;8.660;2023-04-02T09:34:26;2.67;;;1.50;;
13114;SDS011;6623;52.120;8.660;2023-04-02T09:36:53;1.70;;;1.00;;
13114;SDS011;6623;52.120;8.660;2023-04-02T09:39:20;1.97;;;1.30;;
13114;SDS011;6623;52.120;8.660;2023-04-02T09:41:48;3.00;;;1.40;;
13114;SDS011;6623;52.120;8.660;2023-04-02T09:44:19;1.80;;;1.30;;
13114;SDS011;6623;52.120;8.660;2023-04-02T09:49:24;2.40;;;1.43;;
13114;SDS011;6623;52.120;8.660;2023-04-02T09:57:49;2.53;;;1.30;;
13114;SDS011;6623;52.120;8.660;2023-04-02T10:00:30;2.40;;;1.43;;
13114;SDS011;6623;52.120;8.660;2023-04-02T10:03:01;1.80;;;1.30;;
13114;SDS011;6623;52.120;8.660;2023-04-02T10:05:31;7.90;;;1.50;;
13114;SDS011;6623;52.120;8.660;2023-04-02T10:08:08;3.10;;;1.43;;
13114;SDS011;6623;52.120;8.660;2023-04-02T10:10:42;2.03;;;1.37;;
13114;SDS011;6623;52.120;8.660;2023-04-02T10:13:16;2.23;;;1.30;;
13114;SDS011;6623;52.120;8.660;2023-04-02T10:15:50;2.17;;;1.30;;
13114;SDS011;6623;52.120;8.660;2023-04-02T10:21:05;2.87;;;1.20;;
13114;SDS011;6623;52.120;8.660;2023-04-02T10:23:34;1.80;;;1.10;;
13114;SDS011;6623;52.120;8.660;2023-04-02T10:26:11;4.27;;;1.30;;
13114;SDS011;6623;52.120;8.660;2023-04-02T10:29:06;2.53;;;1.40;;
13114;SDS011;6623;52.120;8.660;2023-04-02T10:32:07;4.67;;;1.23;;
13114;SDS011;6623;52.120;8.660;2023-04-02T10:34:55;3.30;;;1.40;;
13114;SDS011;6623;52.120;8.660;2023-04-02T10:40:02;2.47;;;1.00;;
13114;SDS011;6623;52.120;8.660;2023-04-02T10:45:44;2.70;;;1.40;;
13114;SDS011;6623;52.120;8.660;2023-04-02T10:48:25;2.00;;;1.20;;
13114;SDS011;6623;52.120;8.660;2023-04-02T10:56:56;2.50;;;1.57;;
13114;SDS011;6623;52.120;8.660;2023-04-02T10:59:27;1.87;;;1.00;;
13114;SDS011;6623;52.120;8.660;2023-04-02T11:01:58;2.27;;;1.10;;
13114;SDS011;6623;52.120;8.660;2023-04-02T11:04:30;1.53;;;1.07;;
13114;SDS011;6623;52.120;8.660;2023-04-02T11:07:06;3.20;;;1.13;;
13114;SDS011;6623;52.120;8.660;2023-04-02T11:09:42;2.83;;;1.30;;
13114;SDS011;6623;52.120;8.660;2023-04-02T11:12:11;2.00;;;1.13;;
13114;SDS011;6623;52.120;8.660;2023-04-02T11:15:00;2.53;;;1.30;;
13114;SDS011;6623;52.120;8.660;2023-04-02T11:17:27;1.70;;;1.40;;
13114;SDS011;6623;52.120;8.660;2023-04-02T11:19:54;3.00;;;1.40;;
13114;SDS011;6623;52.120;8.660;2023-04-02T11:23:11;2.47;;;1.23;;
13114;SDS011;6623;52.120;8.660;2023-04-02T11:25:39;2.40;;;1.10;;
13114;SDS011;6623;52.120;8.660;2023-04-02T11:28:13;2.80;;;1.17;;
13114;SDS011;6623;52.120;8.660;2023-04-02T11:30:48;5.30;;;1.00;;
13114;SDS011;6623;52.120;8.660;2023-04-02T11:35:55;2.97;;;1.00;;
13114;SDS011;6623;52.120;8.660;2023-04-02T11:40:48;2.47;;;1.20;;
13114;SDS011;6623;52.120;8.660;2023-04-02T11:48:27;2.97;;;1.13;;
13114;SDS011;6623;52.120;8.660;2023-04-02T11:50:55;2.73;;;1.07;;
13114;SDS011;6623;52.120;8.660;2023-04-02T11:53:23;3.97;;;1.40;;
13114;SDS011;6623;52.120;8.660;2023-04-02T11:58:43;2.80;;;1.20;;
13114;SDS011;6623;52.120;8.660;2023-04-02T12:09:54;2.67;;;1.10;;
13114;SDS011;6623;52.120;8.660;2023-04-02T12:14:51;1.73;;;1.07;;
13114;SDS011;6623;52.120;8.660;2023-04-02T12:19:57;2.63;;;1.20;;
13114;SDS011;6623;52.120;8.660;2023-04-02T12:22:27;1.93;;;1.20;;
13114;SDS011;6623;52.120;8.660;2023-04-02T12:24:57;3.23;;;1.03;;
13114;SDS011;6623;52.120;8.660;2023-04-02T12:27:25;2.67;;;1.10;;
13114;SDS011;6623;52.120;8.660;2023-04-02T12:29:54;1.67;;;1.10;;
13114;SDS011;6623;52.120;8.660;2023-04-02T12:32:33;2.63;;;1.70;;
13114;SDS011;6623;52.120;8.660;2023-04-02T12:34:59;2.53;;;1.30;;
13114;SDS011;6623;52.120;8.660;2023-04-02T12:37:26;2.77;;;1.10;;
13114;SDS011;6623;52.120;8.660;2023-04-02T12:39:57;2.30;;;0.90;;
13114;SDS011;6623;52.120;8.660;2023-04-02T12:44:56;2.50;;;1.37;;
13114;SDS011;6623;52.120;8.660;2023-04-02T12:47:21;1.90;;;1.07;;
13114;SDS011;6623;52.120;8.660;2023-04-02T12:49:47;1.57;;;1.07;;
13114;SDS011;6623;52.120;8.660;2023-04-02T12:52:14;2.40;;;1.07;;
13114;SDS011;6623;52.120;8.660;2023-04-02T12:54:43;3.00;;;1.47;;
13114;SDS011;6623;52.120;8.660;2023-04-02T12:59:50;2.37;;;1.10;;
13114;SDS011;6623;52.120;8.660;2023-04-02T13:02:26;1.60;;;1.30;;
13114;SDS011;6623;52.120;8.660;2023-04-02T13:04:55;2.00;;;1.10;;
13114;SDS011;6623;52.120;8.660;2023-04-02T13:07:26;1.80;;;1.00;;
13114;SDS011;6623;52.120;8.660;2023-04-02T13:09:58;2.87;;;1.30;;
13114;SDS011;6623;52.120;8.660;2023-04-02T13:12:36;1.50;;;1.10;;
13114;SDS011;6623;52.120;8.660;2023-04-02T13:15:05;2.30;;;1.00;;
13114;SDS011;6623;52.120;8.660;2023-04-02T13:17:39;1.50;;;0.93;;
13114;SDS011;6623;52.120;8.660;2023-04-02T13:22:52;1.93;;;1.07;;
13114;SDS011;6623;52.120;8.660;2023-04-02T13:25:18;1.80;;;0.80;;
13114;SDS011;6623;52.120;8.660;2023-04-02T13:27:48;1.83;;;1.07;;
13114;SDS011;6623;52.120;8.660;2023-04-02T13:30:17;2.47;;;0.90;;
13114;SDS011;6623;52.120;8.660;2023-04-02T13:32:47;2.33;;;0.90;;
13114;SDS011;6623;52.120;8.660;2023-04-02T13:35:12;2.00;;;1.00;;
13114;SDS011;6623;52.120;8.660;2023-04-02T13:37:38;2.00;;;1.17;;
13114;SDS011;6623;52.120;8.660;2023-04-02T13:40:04;1.83;;;0.90;;
13114;SDS011;6623;52.120;8.660;2023-04-02T13:42:30;4.03;;;1.27;;
13114;SDS011;6623;52.120;8.660;2023-04-02T13:44:56;2.97;;;1.00;;
13114;SDS011;6623;52.120;8.660;2023-04-02T13:47:21;1.90;;;1.10;;
13114;SDS011;6623;52.120;8.660;2023-04-02T13:49:47;3.13;;;1.10;;
13114;SDS011;6623;52.120;8.660;2023-04-02T13:52:13;1.40;;;1.03;;
13114;SDS011;6623;52.120;8.660;2023-04-02T13:54:41;2.30;;;1.30;;
13114;SDS011;6623;52.120;8.660;2023-04-02T13:57:07;2.13;;;0.93;;
13114;SDS011;6623;52.120;8.660;2023-04-02T13:59:33;1.93;;;1.37;;
13114;SDS011;6623;52.120;8.660;2023-04-02T14:02:03;3.13;;;1.30;;
13114;SDS011;6623;52.120;8.660;2023-04-02T14:04:36;2.67;;;1.10;;
13114;SDS011;6623;52.120;8.660;2023-04-02T14:09:50;1.93;;;1.07;;
13114;SDS011;6623;52.120;8.660;2023-04-02T14:12:27;1.67;;;1.10;;
13114;SDS011;6623;52.120;8.660;2023-04-02T14:15:18;2.10;;;1.20;;
13114;SDS011;6623;52.120;8.660;2023-04-02T14:18:03;2.10;;;1.20;;
13114;SDS011;6623;52.120;8.660;2023-04-02T14:29:15;1.93;;;0.93;;
13114;SDS011;6623;52.120;8.660;2023-04-02T14:40:16;1.83;;;1.00;;
13114;SDS011;6623;52.120;8.660;2023-04-02T14:43:05;2.27;;;0.90;;
13114;SDS011;6623;52.120;8.660;2023-04-02T14:50:52;1.60;;;1.00;;
13114;SDS011;6623;52.120;8.660;2023-04-02T14:53:29;2.00;;;1.07;;
13114;SDS011;6623;52.120;8.660;2023-04-02T14:56:01;1.50;;;1.10;;
13114;SDS011;6623;52.120;8.660;2023-04-02T14:58:32;1.53;;;1.00;;
13114;SDS011;6623;52.120;8.660;2023-04-02T15:01:24;3.80;;;1.20;;
13114;SDS011;6623;52.120;8.660;2023-04-02T15:04:02;1.73;;;0.90;;
13114;SDS011;6623;52.120;8.660;2023-04-02T15:06:33;1.83;;;0.90;;
13114;SDS011;6623;52.120;8.660;2023-04-02T15:09:10;1.57;;;0.83;;
13114;SDS011;6623;52.120;8.660;2023-04-02T15:11:47;1.00;;;0.87;;
13114;SDS011;6623;52.120;8.660;2023-04-02T15:16:52;2.67;;;1.10;;
13114;SDS011;6623;52.120;8.660;2023-04-02T15:19:17;2.97;;;0.90;;
13114;SDS011;6623;52.120;8.660;2023-04-02T15:24:58;1.17;;;0.70;;
13114;SDS011;6623;52.120;8.660;2023-04-02T15:30:06;1.70;;;0.80;;
13114;SDS011;6623;52.120;8.660;2023-04-02T15:32:37;1.67;;;0.80;;
13114;SDS011;6623;52.120;8.660;2023-04-02T15:38:03;2.20;;;0.90;;
13114;SDS011;6623;52.120;8.660;2023-04-02T15:43:30;2.37;;;1.17;;
13114;SDS011;6623;52.120;8.660;2023-04-02T15:51:37;2.63;;;0.90;;
13114;SDS011;6623;52.120;8.660;2023-04-02T16:07:18;1.97;;;0.80;;
13114;SDS011;6623;52.120;8.660;2023-04-02T16:12:39;2.00;;;0.70;;
13114;SDS011;6623;52.120;8.660;2023-04-02T16:15:13;2.87;;;0.90;;
13114;SDS011;6623;52.120;8.660;2023-04-02T16:18:04;2.43;;;0.80;;
13114;SDS011;6623;52.120;8.660;2023-04-02T16:20:41;1.77;;;1.10;;
13114;SDS011;6623;52.120;8.660;2023-04-02T16:23:10;3.30;;;1.27;;
13114;SDS011;6623;52.120;8.660;2023-04-02T16:26:01;1.43;;;1.10;;
13114;SDS011;6623;52.120;8.660;2023-04-02T16:28:38;1.33;;;0.90;;
13114;SDS011;6623;52.120;8.660;2023-04-02T16:31:30;1.87;;;0.70;;
13114;SDS011;6623;52.120;8.660;2023-04-02T16:34:13;2.07;;;1.00;;
13114;SDS011;6623;52.120;8.660;2023-04-02T16:37:00;3.27;;;1.03;;
13114;SDS011;6623;52.120;8.660;2023-04-02T16:42:34;2.27;;;0.90;;
13114;SDS011;6623;52.120;8.660;2023-04-02T16:50:31;1.60;;;0.70;;
13114;SDS011;6623;52.120;8.660;2023-04-02T16:56:03;1.43;;;0.80;;
13114;SDS011;6623;52.120;8.660;2023-04-02T17:01:17;0.93;;;0.60;;
13114;SDS011;6623;52.120;8.660;2023-04-02T17:06:41;2.77;;;0.83;;
13114;SDS011;6623;52.120;8.660;2023-04-02T17:11:48;2.70;;;1.00;;
13114;SDS011;6623;52.120;8.660;2023-04-02T17:14:29;1.57;;;0.80;;
13114;SDS011;6623;52.120;8.660;2023-04-02T17:17:03;0.77;;;0.70;;
13114;SDS011;6623;52.120;8.660;2023-04-02T17:19:30;1.40;;;0.77;;
13114;SDS011;6623;52.120;8.660;2023-04-02T17:21:57;2.20;;;0.80;;
13114;SDS011;6623;52.120;8.660;2023-04-02T17:24:27;1.53;;;0.80;;
13114;SDS011;6623;52.120;8.660;2023-04-02T17:29:52;1.33;;;0.80;;
13114;SDS011;6623;52.120;8.660;2023-04-02T17:32:31;1.87;;;0.90;;
13114;SDS011;6623;52.120;8.660;2023-04-02T17:49:35;2.30;;;1.00;;
13114;SDS011;6623;52.120;8.660;2023-04-02T18:00:09;2.00;;;0.80;;
13114;SDS011;6623;52.120;8.660;2023-04-02T18:05:43;1.93;;;0.90;;
13114;SDS011;6623;52.120;8.660;2023-04-02T18:08:25;2.40;;;1.10;;
13114;SDS011;6623;52.120;8.660;2023-04-02T18:11:18;1.13;;;0.83;;
13114;SDS011;6623;52.120;8.660;2023-04-02T18:19:14;3.40;;;1.00;;
13114;SDS011;6623;52.120;8.660;2023-04-02T18:24:22;1.90;;;1.20;;
13114;SDS011;6623;52.120;8.660;2023-04-02T18:27:16;3.37;;;0.87;;
13114;SDS011;6623;52.120;8.660;2023-04-02T18:30:07;2.37;;;0.87;;
13114;SDS011;6623;52.120;8.660;2023-04-02T18:38:21;2.27;;;1.10;;
13114;SDS011;6623;52.120;8.660;2023-04-02T18:40:58;2.60;;;1.10;;
13114;SDS011;6623;52.120;8.660;2023-04-02T18:43:34;2.80;;;1.00;;
13114;SDS011;6623;52.120;8.660;2023-04-02T18:49:26;1.63;;;0.97;;
13114;SDS011;6623;52.120;8.660;2023-04-02T18:51:57;2.03;;;1.10;;
13114;SDS011;6623;52.120;8.660;2023-04-02T18:54:47;2.30;;;1.03;;
13114;SDS011;6623;52.120;8.660;2023-04-02T18:57:51;1.63;;;1.00;;
13114;SDS011;6623;52.120;8.660;2023-04-02T19:03:18;2.40;;;1.07;;
13114;SDS011;6623;52.120;8.660;2023-04-02T19:06:03;2.63;;;1.17;;
13114;SDS011;6623;52.120;8.660;2023-04-02T19:08:35;2.83;;;1.30;;
13114;SDS011;6623;52.120;8.660;2023-04-02T19:11:21;1.90;;;1.13;;
13114;SDS011;6623;52.120;8.660;2023-04-02T19:13:57;2.70;;;1.30;;
13114;SDS011;6623;52.120;8.660;2023-04-02T19:19:16;3.37;;;1.20;;
13114;SDS011;6623;52.120;8.660;2023-04-02T19:29:57;1.53;;;1.07;;
13114;SDS011;6623;52.120;8.660;2023-04-02T19:32:52;3.07;;;1.33;;
13114;SDS011;6623;52.120;8.660;2023-04-02T19:35:33;3.53;;;1.23;;
13114;SDS011;6623;52.120;8.660;2023-04-02T19:38:40;3.90;;;1.30;;
13114;SDS011;6623;52.120;8.660;2023-04-02T19:44:11;2.27;;;1.00;;
13114;SDS011;6623;52.120;8.660;2023-04-02T19:46:38;3.30;;;1.30;;
13114;SDS011;6623;52.120;8.660;2023-04-02T19:52:05;2.20;;;1.10;;
13114;SDS011;6623;52.120;8.660;2023-04-02T19:54:31;3.33;;;1.10;;
13114;SDS011;6623;52.120;8.660;2023-04-02T19:56:56;3.57;;;1.00;;
13114;SDS011;6623;52.120;8.660;2023-04-02T19:59:23;3.10;;;1.40;;
13114;SDS011;6623;52.120;8.660;2023-04-02T20:01:49;2.80;;;1.20;;